sensor_id;sensor_type;location;lat;lon;timestamp;temperature;humidity
74364;DHT22;62797;49.740;10.154;2024-01-10T00:02:14;-5.40;30.10
74364;DHT22;62797;49.740;10.154;2024-01-10T00:04:40;-5.40;29.60
74364;DHT22;62797;49.740;10.154;2024-01-10T00:07:06;-5.40;28.90
74364;DHT22;62797;49.740;10.154;2024-01-10T00:09:32;-5.40;29.20
74364;DHT22;62797;49.740;10.154;2024-01-10T00:11:58;-5.50;29.70
74364;DHT22;62797;49.740;10.154;2024-01-10T00:14:24;-5.50;29.70
74364;DHT22;62797;49.740;10.154;2024-01-10T00:16:50;-5.60;29.70
74364;DHT22;62797;49.740;10.154;2024-01-10T00:19:15;-5.00;30.00
74364;DHT22;62797;49.740;10.154;2024-01-10T00:21:41;-4.70;30.50
74364;DHT22;62797;49.740;10.154;2024-01-10T00:24:07;-5.60;31.90
74364;DHT22;62797;49.740;10.154;2024-01-10T00:26:33;-5.60;32.80
74364;DHT22;62797;49.740;10.154;2024-01-10T00:28:59;-4.60;30.30
74364;DHT22;62797;49.740;10.154;2024-01-10T00:31:25;-5.70;32.90
74364;DHT22;62797;49.740;10.154;2024-01-10T00:33:50;-4.80;32.70
74364;DHT22;62797;49.740;10.154;2024-01-10T00:36:16;-5.70;32.00
74364;DHT22;62797;49.740;10.154;2024-01-10T00:38:42;-5.90;32.00
74364;DHT22;62797;49.740;10.154;2024-01-10T00:41:08;-5.20;30.60
74364;DHT22;62797;49.740;10.154;2024-01-10T00:43:34;-5.70;30.40
74364;DHT22;62797;49.740;10.154;2024-01-10T00:46:00;-5.50;30.10
74364;DHT22;62797;49.740;10.154;2024-01-10T00:48:26;-5.80;32.20
74364;DHT22;62797;49.740;10.154;2024-01-10T00:50:52;-5.70;31.40
74364;DHT22;62797;49.740;10.154;2024-01-10T00:53:18;-5.80;31.20
74364;DHT22;62797;49.740;10.154;2024-01-10T00:55:44;-5.80;31.30
74364;DHT22;62797;49.740;10.154;2024-01-10T00:58:09;-5.70;30.90
74364;DHT22;62797;49.740;10.154;2024-01-10T01:00:35;-5.70;31.60
74364;DHT22;62797;49.740;10.154;2024-01-10T01:03:01;-5.70;32.30
74364;DHT22;62797;49.740;10.154;2024-01-10T01:05:27;-5.70;31.90
74364;DHT22;62797;49.740;10.154;2024-01-10T01:07:53;-5.70;31.60
74364;DHT22;62797;49.740;10.154;2024-01-10T01:10:19;-5.70;31.70
74364;DHT22;62797;49.740;10.154;2024-01-10T01:12:46;-5.60;29.60
74364;DHT22;62797;49.740;10.154;2024-01-10T01:15:12;-5.60;29.60
74364;DHT22;62797;49.740;10.154;2024-01-10T01:17:38;-5.60;31.10
74364;DHT22;62797;49.740;10.154;2024-01-10T01:20:04;-5.60;31.30
74364;DHT22;62797;49.740;10.154;2024-01-10T01:22:30;-5.60;31.00
74364;DHT22;62797;49.740;10.154;2024-01-10T01:24:59;-5.60;30.10
74364;DHT22;62797;49.740;10.154;2024-01-10T01:27:25;-5.60;29.40
74364;DHT22;62797;49.740;10.154;2024-01-10T01:29:51;-5.70;30.90
74364;DHT22;62797;49.740;10.154;2024-01-10T01:32:16;-5.60;31.30
74364;DHT22;62797;49.740;10.154;2024-01-10T01:34:42;-5.70;30.70
74364;DHT22;62797;49.740;10.154;2024-01-10T01:37:08;-5.70;31.10
74364;DHT22;62797;49.740;10.154;2024-01-10T01:39:35;-5.60;30.30
74364;DHT22;62797;49.740;10.154;2024-01-10T01:42:00;-5.60;30.60
74364;DHT22;62797;49.740;10.154;2024-01-10T01:44:26;-5.50;30.40
74364;DHT22;62797;49.740;10.154;2024-01-10T01:46:52;-5.40;31.40
74364;DHT22;62797;49.740;10.154;2024-01-10T01:49:18;-5.50;30.50
74364;DHT22;62797;49.740;10.154;2024-01-10T01:51:44;-5.50;30.00
74364;DHT22;62797;49.740;10.154;2024-01-10T01:54:10;-5.50;30.00
74364;DHT22;62797;49.740;10.154;2024-01-10T01:56:37;-5.50;29.70
74364;DHT22;62797;49.740;10.154;2024-01-10T01:59:07;-5.50;29.90
74364;DHT22;62797;49.740;10.154;2024-01-10T02:01:34;-5.60;30.00
74364;DHT22;62797;49.740;10.154;2024-01-10T02:04:03;-5.60;30.10
74364;DHT22;62797;49.740;10.154;2024-01-10T02:06:29;-5.60;30.30
74364;DHT22;62797;49.740;10.154;2024-01-10T02:08:58;-5.60;30.30
74364;DHT22;62797;49.740;10.154;2024-01-10T02:11:25;-5.50;29.30
74364;DHT22;62797;49.740;10.154;2024-01-10T02:13:52;-5.50;29.50
74364;DHT22;62797;49.740;10.154;2024-01-10T02:16:22;-5.50;29.60
74364;DHT22;62797;49.740;10.154;2024-01-10T02:18:50;-5.60;29.30
74364;DHT22;62797;49.740;10.154;2024-01-10T02:21:20;-5.60;29.50
74364;DHT22;62797;49.740;10.154;2024-01-10T02:23:47;-5.50;29.00
74364;DHT22;62797;49.740;10.154;2024-01-10T02:26:14;-5.50;30.30
74364;DHT22;62797;49.740;10.154;2024-01-10T02:28:40;-5.40;29.00
74364;DHT22;62797;49.740;10.154;2024-01-10T02:31:06;-5.50;28.40
74364;DHT22;62797;49.740;10.154;2024-01-10T02:33:33;-5.50;29.50
74364;DHT22;62797;49.740;10.154;2024-01-10T02:35:59;-5.40;29.90
74364;DHT22;62797;49.740;10.154;2024-01-10T02:38:25;-5.40;30.10
74364;DHT22;62797;49.740;10.154;2024-01-10T02:40:52;-5.40;29.60
74364;DHT22;62797;49.740;10.154;2024-01-10T02:43:19;-5.30;29.60
74364;DHT22;62797;49.740;10.154;2024-01-10T02:45:44;-4.80;29.40
74364;DHT22;62797;49.740;10.154;2024-01-10T02:48:10;-5.40;27.40
74364;DHT22;62797;49.740;10.154;2024-01-10T02:50:36;-5.30;28.80
74364;DHT22;62797;49.740;10.154;2024-01-10T02:53:04;-5.30;28.60
74364;DHT22;62797;49.740;10.154;2024-01-10T02:55:29;-5.30;29.00
74364;DHT22;62797;49.740;10.154;2024-01-10T02:57:55;-5.40;29.60
74364;DHT22;62797;49.740;10.154;2024-01-10T03:00:21;-5.30;28.50
74364;DHT22;62797;49.740;10.154;2024-01-10T03:02:47;-5.30;29.60
74364;DHT22;62797;49.740;10.154;2024-01-10T03:05:12;-5.40;29.50
74364;DHT22;62797;49.740;10.154;2024-01-10T03:07:38;-5.40;30.20
74364;DHT22;62797;49.740;10.154;2024-01-10T03:10:04;-5.50;29.40
74364;DHT22;62797;49.740;10.154;2024-01-10T03:12:30;-5.50;29.90
74364;DHT22;62797;49.740;10.154;2024-01-10T03:14:56;-5.50;30.70
74364;DHT22;62797;49.740;10.154;2024-01-10T03:17:21;-5.50;29.60
74364;DHT22;62797;49.740;10.154;2024-01-10T03:19:48;-5.60;31.00
74364;DHT22;62797;49.740;10.154;2024-01-10T03:22:14;-5.60;31.20
74364;DHT22;62797;49.740;10.154;2024-01-10T03:24:41;-5.60;31.80
74364;DHT22;62797;49.740;10.154;2024-01-10T03:27:07;-5.60;30.30
74364;DHT22;62797;49.740;10.154;2024-01-10T03:29:32;-5.70;30.80
74364;DHT22;62797;49.740;10.154;2024-01-10T03:31:58;-5.70;31.90
74364;DHT22;62797;49.740;10.154;2024-01-10T03:34:25;-5.80;32.30
74364;DHT22;62797;49.740;10.154;2024-01-10T03:36:51;-6.00;32.10
74364;DHT22;62797;49.740;10.154;2024-01-10T03:39:20;-5.90;33.00
74364;DHT22;62797;49.740;10.154;2024-01-10T03:41:46;-5.90;33.50
74364;DHT22;62797;49.740;10.154;2024-01-10T03:44:14;-5.80;31.60
74364;DHT22;62797;49.740;10.154;2024-01-10T03:46:40;-5.90;32.90
74364;DHT22;62797;49.740;10.154;2024-01-10T03:49:07;-6.10;32.40
74364;DHT22;62797;49.740;10.154;2024-01-10T03:51:33;-6.00;32.50
74364;DHT22;62797;49.740;10.154;2024-01-10T03:53:59;-6.10;32.90
74364;DHT22;62797;49.740;10.154;2024-01-10T03:56:26;-6.00;34.60
74364;DHT22;62797;49.740;10.154;2024-01-10T03:58:52;-6.10;36.00
74364;DHT22;62797;49.740;10.154;2024-01-10T04:01:22;-6.20;34.50
74364;DHT22;62797;49.740;10.154;2024-01-10T04:03:49;-5.20;35.30
74364;DHT22;62797;49.740;10.154;2024-01-10T04:06:14;-6.10;34.10
74364;DHT22;62797;49.740;10.154;2024-01-10T04:08:40;-6.10;35.40
74364;DHT22;62797;49.740;10.154;2024-01-10T04:11:06;-6.20;33.80
74364;DHT22;62797;49.740;10.154;2024-01-10T04:13:34;-6.10;36.60
74364;DHT22;62797;49.740;10.154;2024-01-10T04:16:00;-6.10;36.50
74364;DHT22;62797;49.740;10.154;2024-01-10T04:18:27;-6.10;34.80
74364;DHT22;62797;49.740;10.154;2024-01-10T04:20:52;-6.20;34.50
74364;DHT22;62797;49.740;10.154;2024-01-10T04:23:18;-6.20;35.40
74364;DHT22;62797;49.740;10.154;2024-01-10T04:25:44;-6.20;36.20
74364;DHT22;62797;49.740;10.154;2024-01-10T04:28:11;-6.20;36.60
74364;DHT22;62797;49.740;10.154;2024-01-10T04:30:36;-6.20;36.70
74364;DHT22;62797;49.740;10.154;2024-01-10T04:33:02;-6.20;35.80
74364;DHT22;62797;49.740;10.154;2024-01-10T04:35:28;-6.20;37.80
74364;DHT22;62797;49.740;10.154;2024-01-10T04:37:54;-5.10;37.40
74364;DHT22;62797;49.740;10.154;2024-01-10T04:40:22;-6.20;36.00
74364;DHT22;62797;49.740;10.154;2024-01-10T04:42:49;-6.20;36.80
74364;DHT22;62797;49.740;10.154;2024-01-10T04:45:15;-6.30;36.10
74364;DHT22;62797;49.740;10.154;2024-01-10T04:47:41;-6.30;35.60
74364;DHT22;62797;49.740;10.154;2024-01-10T04:50:07;-6.30;35.60
74364;DHT22;62797;49.740;10.154;2024-01-10T04:52:33;-6.30;36.20
74364;DHT22;62797;49.740;10.154;2024-01-10T04:54:59;-6.40;35.50
74364;DHT22;62797;49.740;10.154;2024-01-10T04:57:25;-6.40;36.90
74364;DHT22;62797;49.740;10.154;2024-01-10T04:59:51;-6.40;37.60
74364;DHT22;62797;49.740;10.154;2024-01-10T05:02:17;-6.40;37.30
74364;DHT22;62797;49.740;10.154;2024-01-10T05:04:42;-6.40;36.10
74364;DHT22;62797;49.740;10.154;2024-01-10T05:07:09;-6.30;36.40
74364;DHT22;62797;49.740;10.154;2024-01-10T05:09:34;-6.40;37.40
74364;DHT22;62797;49.740;10.154;2024-01-10T05:12:00;-6.50;37.30
74364;DHT22;62797;49.740;10.154;2024-01-10T05:14:26;-6.50;37.90
74364;DHT22;62797;49.740;10.154;2024-01-10T05:16:52;-6.40;36.80
74364;DHT22;62797;49.740;10.154;2024-01-10T05:19:19;-6.50;37.60
74364;DHT22;62797;49.740;10.154;2024-01-10T05:21:44;-6.50;39.40
74364;DHT22;62797;49.740;10.154;2024-01-10T05:24:10;-6.50;39.60
74364;DHT22;62797;49.740;10.154;2024-01-10T05:26:36;-6.60;39.10
74364;DHT22;62797;49.740;10.154;2024-01-10T05:29:02;-6.50;39.60
74364;DHT22;62797;49.740;10.154;2024-01-10T05:31:28;-6.50;38.60
74364;DHT22;62797;49.740;10.154;2024-01-10T05:33:54;-6.50;39.30
74364;DHT22;62797;49.740;10.154;2024-01-10T05:36:24;-6.50;39.40
74364;DHT22;62797;49.740;10.154;2024-01-10T05:38:50;-6.40;39.70
74364;DHT22;62797;49.740;10.154;2024-01-10T05:41:16;-6.40;38.90
74364;DHT22;62797;49.740;10.154;2024-01-10T05:43:42;-6.40;40.10
74364;DHT22;62797;49.740;10.154;2024-01-10T05:46:10;-6.40;39.30
74364;DHT22;62797;49.740;10.154;2024-01-10T05:48:35;-6.40;39.40
74364;DHT22;62797;49.740;10.154;2024-01-10T05:51:02;-6.20;40.50
74364;DHT22;62797;49.740;10.154;2024-01-10T05:53:29;-6.50;40.10
74364;DHT22;62797;49.740;10.154;2024-01-10T05:55:54;-6.50;39.50
74364;DHT22;62797;49.740;10.154;2024-01-10T05:58:20;-6.60;39.00
74364;DHT22;62797;49.740;10.154;2024-01-10T06:00:46;-6.60;39.90
74364;DHT22;62797;49.740;10.154;2024-01-10T06:03:12;-6.60;40.90
74364;DHT22;62797;49.740;10.154;2024-01-10T06:05:38;-6.60;40.60
74364;DHT22;62797;49.740;10.154;2024-01-10T06:08:04;-6.60;40.70
74364;DHT22;62797;49.740;10.154;2024-01-10T06:10:30;-6.60;40.10
74364;DHT22;62797;49.740;10.154;2024-01-10T06:12:56;-6.60;39.60
74364;DHT22;62797;49.740;10.154;2024-01-10T06:15:22;-6.60;40.60
74364;DHT22;62797;49.740;10.154;2024-01-10T06:17:48;-6.70;41.80
74364;DHT22;62797;49.740;10.154;2024-01-10T06:20:15;-6.70;42.10
74364;DHT22;62797;49.740;10.154;2024-01-10T06:22:42;-6.70;41.40
74364;DHT22;62797;49.740;10.154;2024-01-10T06:25:07;-6.60;41.10
74364;DHT22;62797;49.740;10.154;2024-01-10T06:27:34;-6.70;41.90
74364;DHT22;62797;49.740;10.154;2024-01-10T06:30:00;-6.70;41.00
74364;DHT22;62797;49.740;10.154;2024-01-10T06:32:29;-6.70;41.60
74364;DHT22;62797;49.740;10.154;2024-01-10T06:34:55;-6.80;43.10
74364;DHT22;62797;49.740;10.154;2024-01-10T06:37:20;-6.80;44.00
74364;DHT22;62797;49.740;10.154;2024-01-10T06:39:46;-6.20;44.00
74364;DHT22;62797;49.740;10.154;2024-01-10T06:42:12;-6.80;41.80
74364;DHT22;62797;49.740;10.154;2024-01-10T06:44:38;-6.50;44.10
74364;DHT22;62797;49.740;10.154;2024-01-10T06:47:04;-6.90;43.40
74364;DHT22;62797;49.740;10.154;2024-01-10T06:49:30;-6.90;43.30
74364;DHT22;62797;49.740;10.154;2024-01-10T06:51:56;-6.90;43.40
74364;DHT22;62797;49.740;10.154;2024-01-10T06:54:21;-6.90;42.80
74364;DHT22;62797;49.740;10.154;2024-01-10T06:56:47;-6.90;42.60
74364;DHT22;62797;49.740;10.154;2024-01-10T06:59:13;-6.90;44.30
74364;DHT22;62797;49.740;10.154;2024-01-10T07:01:39;-6.90;45.40
74364;DHT22;62797;49.740;10.154;2024-01-10T07:04:04;-6.90;44.40
74364;DHT22;62797;49.740;10.154;2024-01-10T07:06:30;-6.90;45.00
74364;DHT22;62797;49.740;10.154;2024-01-10T07:08:57;-6.90;43.90
74364;DHT22;62797;49.740;10.154;2024-01-10T07:11:24;-6.90;44.80
74364;DHT22;62797;49.740;10.154;2024-01-10T07:13:52;-7.00;43.50
74364;DHT22;62797;49.740;10.154;2024-01-10T07:16:18;-6.90;46.40
74364;DHT22;62797;49.740;10.154;2024-01-10T07:18:44;-6.90;45.60
74364;DHT22;62797;49.740;10.154;2024-01-10T07:21:11;-6.80;45.70
74364;DHT22;62797;49.740;10.154;2024-01-10T07:23:37;-6.80;45.60
74364;DHT22;62797;49.740;10.154;2024-01-10T07:26:06;-6.80;44.70
74364;DHT22;62797;49.740;10.154;2024-01-10T07:28:31;-6.70;45.70
74364;DHT22;62797;49.740;10.154;2024-01-10T07:30:58;-6.70;44.10
74364;DHT22;62797;49.740;10.154;2024-01-10T07:33:24;-6.80;44.10
74364;DHT22;62797;49.740;10.154;2024-01-10T07:35:50;-6.80;46.70
74364;DHT22;62797;49.740;10.154;2024-01-10T07:38:16;-6.80;45.50
74364;DHT22;62797;49.740;10.154;2024-01-10T07:40:44;-6.80;45.10
74364;DHT22;62797;49.740;10.154;2024-01-10T07:43:09;-6.80;44.80
74364;DHT22;62797;49.740;10.154;2024-01-10T07:45:37;-6.70;44.90
74364;DHT22;62797;49.740;10.154;2024-01-10T07:48:03;-6.80;44.70
74364;DHT22;62797;49.740;10.154;2024-01-10T07:50:29;-6.70;45.60
74364;DHT22;62797;49.740;10.154;2024-01-10T07:52:55;-6.70;45.30
74364;DHT22;62797;49.740;10.154;2024-01-10T07:55:21;-6.50;46.80
74364;DHT22;62797;49.740;10.154;2024-01-10T07:57:47;-6.50;45.70
74364;DHT22;62797;49.740;10.154;2024-01-10T08:00:13;-6.40;45.50
74364;DHT22;62797;49.740;10.154;2024-01-10T08:02:41;-6.40;45.50
74364;DHT22;62797;49.740;10.154;2024-01-10T08:05:07;-6.40;44.90
74364;DHT22;62797;49.740;10.154;2024-01-10T08:07:37;-6.30;43.10
74364;DHT22;62797;49.740;10.154;2024-01-10T08:10:06;-6.20;43.00
74364;DHT22;62797;49.740;10.154;2024-01-10T08:12:33;-6.20;44.20
74364;DHT22;62797;49.740;10.154;2024-01-10T08:14:59;-6.20;43.90
74364;DHT22;62797;49.740;10.154;2024-01-10T08:17:24;-6.10;43.90
74364;DHT22;62797;49.740;10.154;2024-01-10T08:19:55;-6.10;43.90
74364;DHT22;62797;49.740;10.154;2024-01-10T08:22:21;-6.00;43.20
74364;DHT22;62797;49.740;10.154;2024-01-10T08:24:51;-5.90;41.90
74364;DHT22;62797;49.740;10.154;2024-01-10T08:27:17;-5.90;40.70
74364;DHT22;62797;49.740;10.154;2024-01-10T08:29:43;-5.80;39.90
74364;DHT22;62797;49.740;10.154;2024-01-10T08:32:10;-5.80;41.00
74364;DHT22;62797;49.740;10.154;2024-01-10T08:34:36;-5.70;41.20
74364;DHT22;62797;49.740;10.154;2024-01-10T08:37:02;-5.70;40.70
74364;DHT22;62797;49.740;10.154;2024-01-10T08:39:28;-5.60;39.20
74364;DHT22;62797;49.740;10.154;2024-01-10T08:41:57;-5.50;38.80
74364;DHT22;62797;49.740;10.154;2024-01-10T08:44:23;-5.40;39.80
74364;DHT22;62797;49.740;10.154;2024-01-10T08:46:49;-5.40;40.40
74364;DHT22;62797;49.740;10.154;2024-01-10T08:49:17;-5.30;40.10
74364;DHT22;62797;49.740;10.154;2024-01-10T08:51:43;-5.20;40.60
74364;DHT22;62797;49.740;10.154;2024-01-10T08:54:10;-5.10;39.70
74364;DHT22;62797;49.740;10.154;2024-01-10T08:56:38;-5.10;39.70
74364;DHT22;62797;49.740;10.154;2024-01-10T08:59:04;-5.00;37.70
74364;DHT22;62797;49.740;10.154;2024-01-10T09:01:31;-4.90;36.20
74364;DHT22;62797;49.740;10.154;2024-01-10T09:03:57;-4.80;36.20
74364;DHT22;62797;49.740;10.154;2024-01-10T09:06:23;-4.70;37.20
74364;DHT22;62797;49.740;10.154;2024-01-10T09:08:48;-4.50;35.70
74364;DHT22;62797;49.740;10.154;2024-01-10T09:11:15;-4.40;34.50
74364;DHT22;62797;49.740;10.154;2024-01-10T09:13:40;-4.30;33.80
74364;DHT22;62797;49.740;10.154;2024-01-10T09:16:06;-4.10;35.70
74364;DHT22;62797;49.740;10.154;2024-01-10T09:18:32;-3.90;33.90
74364;DHT22;62797;49.740;10.154;2024-01-10T09:20:58;-3.80;34.20
74364;DHT22;62797;49.740;10.154;2024-01-10T09:23:24;-3.60;31.40
74364;DHT22;62797;49.740;10.154;2024-01-10T09:25:50;-3.50;31.60
74364;DHT22;62797;49.740;10.154;2024-01-10T09:28:16;-3.40;29.10
74364;DHT22;62797;49.740;10.154;2024-01-10T09:30:44;-3.30;28.60
74364;DHT22;62797;49.740;10.154;2024-01-10T09:33:10;-3.30;27.80
74364;DHT22;62797;49.740;10.154;2024-01-10T09:35:36;-3.30;27.30
74364;DHT22;62797;49.740;10.154;2024-01-10T09:38:02;-3.30;27.70
74364;DHT22;62797;49.740;10.154;2024-01-10T09:40:28;-3.10;28.30
74364;DHT22;62797;49.740;10.154;2024-01-10T09:42:54;-2.90;28.60
74364;DHT22;62797;49.740;10.154;2024-01-10T09:45:21;-2.70;26.80
74364;DHT22;62797;49.740;10.154;2024-01-10T09:47:56;-2.60;26.40
74364;DHT22;62797;49.740;10.154;2024-01-10T09:50:23;-2.50;25.90
74364;DHT22;62797;49.740;10.154;2024-01-10T09:52:53;-2.40;26.00
74364;DHT22;62797;49.740;10.154;2024-01-10T09:55:23;-2.40;25.90
74364;DHT22;62797;49.740;10.154;2024-01-10T09:57:49;-2.40;25.80
74364;DHT22;62797;49.740;10.154;2024-01-10T10:00:16;-2.30;26.20
74364;DHT22;62797;49.740;10.154;2024-01-10T10:02:42;-2.20;26.00
74364;DHT22;62797;49.740;10.154;2024-01-10T10:05:09;-2.20;25.40
74364;DHT22;62797;49.740;10.154;2024-01-10T10:07:51;-2.20;25.90
74364;DHT22;62797;49.740;10.154;2024-01-10T10:10:19;-2.10;25.50
74364;DHT22;62797;49.740;10.154;2024-01-10T10:12:46;-2.10;25.40
74364;DHT22;62797;49.740;10.154;2024-01-10T10:15:17;-2.10;25.30
74364;DHT22;62797;49.740;10.154;2024-01-10T10:17:45;-2.10;26.00
74364;DHT22;62797;49.740;10.154;2024-01-10T10:20:21;-2.10;26.50
74364;DHT22;62797;49.740;10.154;2024-01-10T10:25:35;-1.80;25.70
74364;DHT22;62797;49.740;10.154;2024-01-10T10:28:02;-1.70;26.00
74364;DHT22;62797;49.740;10.154;2024-01-10T10:30:30;-1.70;24.50
74364;DHT22;62797;49.740;10.154;2024-01-10T10:32:56;-1.50;25.90
74364;DHT22;62797;49.740;10.154;2024-01-10T10:35:23;-1.40;25.60
74364;DHT22;62797;49.740;10.154;2024-01-10T10:37:50;-1.20;25.00
74364;DHT22;62797;49.740;10.154;2024-01-10T10:40:16;-0.90;23.10
74364;DHT22;62797;49.740;10.154;2024-01-10T10:42:48;-0.70;24.30
74364;DHT22;62797;49.740;10.154;2024-01-10T10:45:16;-0.50;22.60
74364;DHT22;62797;49.740;10.154;2024-01-10T10:47:48;-0.50;22.60
74364;DHT22;62797;49.740;10.154;2024-01-10T10:50:22;-0.30;22.70
74364;DHT22;62797;49.740;10.154;2024-01-10T10:52:49;-0.10;22.00
74364;DHT22;62797;49.740;10.154;2024-01-10T10:55:16;0.10;21.80
74364;DHT22;62797;49.740;10.154;2024-01-10T10:57:46;0.40;21.30
74364;DHT22;62797;49.740;10.154;2024-01-10T11:00:19;0.60;20.20
74364;DHT22;62797;49.740;10.154;2024-01-10T11:02:46;0.70;19.90
74364;DHT22;62797;49.740;10.154;2024-01-10T11:05:12;0.70;18.80
74364;DHT22;62797;49.740;10.154;2024-01-10T11:07:39;0.50;19.70
74364;DHT22;62797;49.740;10.154;2024-01-10T11:10:21;0.60;20.00
74364;DHT22;62797;49.740;10.154;2024-01-10T11:19:04;1.10;19.60
74364;DHT22;62797;49.740;10.154;2024-01-10T11:24:02;1.30;19.00
74364;DHT22;62797;49.740;10.154;2024-01-10T11:26:28;1.40;18.40
74364;DHT22;62797;49.740;10.154;2024-01-10T11:28:53;1.60;18.70
74364;DHT22;62797;49.740;10.154;2024-01-10T11:31:30;1.80;17.90
74364;DHT22;62797;49.740;10.154;2024-01-10T11:34:00;1.80;18.30
74364;DHT22;62797;49.740;10.154;2024-01-10T11:36:26;1.80;18.40
74364;DHT22;62797;49.740;10.154;2024-01-10T11:46:42;2.50;16.60
74364;DHT22;62797;49.740;10.154;2024-01-10T11:49:13;2.50;16.80
74364;DHT22;62797;49.740;10.154;2024-01-10T11:51:50;2.70;16.60
74364;DHT22;62797;49.740;10.154;2024-01-10T11:54:43;2.70;16.50
74364;DHT22;62797;49.740;10.154;2024-01-10T11:57:29;2.80;16.00
74364;DHT22;62797;49.740;10.154;2024-01-10T11:59:57;2.50;16.40
74364;DHT22;62797;49.740;10.154;2024-01-10T12:02:25;2.40;17.10
74364;DHT22;62797;49.740;10.154;2024-01-10T12:04:53;2.60;17.20
74364;DHT22;62797;49.740;10.154;2024-01-10T12:07:20;2.80;16.70
74364;DHT22;62797;49.740;10.154;2024-01-10T12:09:46;2.80;15.80
74364;DHT22;62797;49.740;10.154;2024-01-10T12:12:14;2.80;15.60
74364;DHT22;62797;49.740;10.154;2024-01-10T12:14:41;2.70;15.90
74364;DHT22;62797;49.740;10.154;2024-01-10T12:17:08;2.80;15.90
74364;DHT22;62797;49.740;10.154;2024-01-10T12:19:35;2.70;15.50
74364;DHT22;62797;49.740;10.154;2024-01-10T12:22:03;2.50;16.40
74364;DHT22;62797;49.740;10.154;2024-01-10T12:24:29;2.50;16.90
74364;DHT22;62797;49.740;10.154;2024-01-10T12:26:57;2.50;16.70
74364;DHT22;62797;49.740;10.154;2024-01-10T12:29:23;2.60;16.20
74364;DHT22;62797;49.740;10.154;2024-01-10T12:31:51;2.60;16.40
74364;DHT22;62797;49.740;10.154;2024-01-10T12:34:17;2.70;16.30
74364;DHT22;62797;49.740;10.154;2024-01-10T12:36:43;2.60;16.50
74364;DHT22;62797;49.740;10.154;2024-01-10T12:39:10;2.50;15.80
74364;DHT22;62797;49.740;10.154;2024-01-10T12:41:37;2.40;15.90
74364;DHT22;62797;49.740;10.154;2024-01-10T12:44:04;2.30;16.50
74364;DHT22;62797;49.740;10.154;2024-01-10T12:46:30;2.30;16.40
74364;DHT22;62797;49.740;10.154;2024-01-10T12:49:06;2.30;16.50
74364;DHT22;62797;49.740;10.154;2024-01-10T12:51:33;2.30;17.20
74364;DHT22;62797;49.740;10.154;2024-01-10T12:54:02;2.30;17.20
74364;DHT22;62797;49.740;10.154;2024-01-10T12:56:30;2.40;17.10
74364;DHT22;62797;49.740;10.154;2024-01-10T12:58:55;2.70;17.00
74364;DHT22;62797;49.740;10.154;2024-01-10T13:01:22;3.00;15.90
74364;DHT22;62797;49.740;10.154;2024-01-10T13:03:48;3.10;16.30
74364;DHT22;62797;49.740;10.154;2024-01-10T13:06:14;3.30;15.70
74364;DHT22;62797;49.740;10.154;2024-01-10T13:08:41;3.50;15.30
74364;DHT22;62797;49.740;10.154;2024-01-10T13:11:08;3.70;15.50
74364;DHT22;62797;49.740;10.154;2024-01-10T13:13:38;3.80;14.60
74364;DHT22;62797;49.740;10.154;2024-01-10T13:16:06;3.80;14.60
74364;DHT22;62797;49.740;10.154;2024-01-10T13:18:31;4.00;15.00
74364;DHT22;62797;49.740;10.154;2024-01-10T13:20:57;4.20;14.50
74364;DHT22;62797;49.740;10.154;2024-01-10T13:23:23;4.10;14.10
74364;DHT22;62797;49.740;10.154;2024-01-10T13:25:52;4.00;14.40
74364;DHT22;62797;49.740;10.154;2024-01-10T13:28:19;4.00;14.10
74364;DHT22;62797;49.740;10.154;2024-01-10T13:30:45;3.80;15.50
74364;DHT22;62797;49.740;10.154;2024-01-10T13:33:11;3.80;15.00
74364;DHT22;62797;49.740;10.154;2024-01-10T13:35:37;3.80;15.40
74364;DHT22;62797;49.740;10.154;2024-01-10T13:38:03;3.80;14.30
74364;DHT22;62797;49.740;10.154;2024-01-10T13:40:29;3.80;15.10
74364;DHT22;62797;49.740;10.154;2024-01-10T13:42:57;3.70;14.80
74364;DHT22;62797;49.740;10.154;2024-01-10T13:45:23;3.70;15.50
74364;DHT22;62797;49.740;10.154;2024-01-10T13:47:49;3.90;15.30
74364;DHT22;62797;49.740;10.154;2024-01-10T13:50:15;4.10;14.70
74364;DHT22;62797;49.740;10.154;2024-01-10T13:52:42;4.10;14.80
74364;DHT22;62797;49.740;10.154;2024-01-10T13:55:09;4.20;14.20
74364;DHT22;62797;49.740;10.154;2024-01-10T13:57:35;4.00;14.00
74364;DHT22;62797;49.740;10.154;2024-01-10T14:00:02;3.80;14.00
74364;DHT22;62797;49.740;10.154;2024-01-10T14:02:37;3.60;14.60
74364;DHT22;62797;49.740;10.154;2024-01-10T14:05:03;3.50;14.80
74364;DHT22;62797;49.740;10.154;2024-01-10T14:07:32;3.40;15.50
74364;DHT22;62797;49.740;10.154;2024-01-10T14:09:58;3.40;15.20
74364;DHT22;62797;49.740;10.154;2024-01-10T14:12:24;3.40;15.00
74364;DHT22;62797;49.740;10.154;2024-01-10T14:14:50;3.30;15.10
74364;DHT22;62797;49.740;10.154;2024-01-10T14:17:16;3.30;15.90
74364;DHT22;62797;49.740;10.154;2024-01-10T14:19:42;3.20;16.00
74364;DHT22;62797;49.740;10.154;2024-01-10T14:22:09;3.20;15.70
74364;DHT22;62797;49.740;10.154;2024-01-10T14:24:35;3.20;15.70
74364;DHT22;62797;49.740;10.154;2024-01-10T14:27:01;3.10;16.20
74364;DHT22;62797;49.740;10.154;2024-01-10T14:29:27;3.30;16.00
74364;DHT22;62797;49.740;10.154;2024-01-10T14:31:52;3.50;15.70
74364;DHT22;62797;49.740;10.154;2024-01-10T14:34:18;3.60;15.40
74364;DHT22;62797;49.740;10.154;2024-01-10T14:36:44;3.70;15.70
74364;DHT22;62797;49.740;10.154;2024-01-10T14:39:10;3.90;15.10
74364;DHT22;62797;49.740;10.154;2024-01-10T14:41:39;3.90;15.50
74364;DHT22;62797;49.740;10.154;2024-01-10T14:44:07;3.90;15.20
74364;DHT22;62797;49.740;10.154;2024-01-10T14:46:33;3.90;15.20
74364;DHT22;62797;49.740;10.154;2024-01-10T14:48:59;4.00;15.10
74364;DHT22;62797;49.740;10.154;2024-01-10T14:51:25;4.00;14.80
74364;DHT22;62797;49.740;10.154;2024-01-10T14:53:50;4.10;15.10
74364;DHT22;62797;49.740;10.154;2024-01-10T14:56:17;4.00;14.60
74364;DHT22;62797;49.740;10.154;2024-01-10T14:58:43;3.90;15.00
74364;DHT22;62797;49.740;10.154;2024-01-10T15:01:09;3.60;15.30
74364;DHT22;62797;49.740;10.154;2024-01-10T15:03:35;3.40;15.30
74364;DHT22;62797;49.740;10.154;2024-01-10T15:06:03;3.10;17.10
74364;DHT22;62797;49.740;10.154;2024-01-10T15:08:29;2.90;16.80
74364;DHT22;62797;49.740;10.154;2024-01-10T15:10:55;2.60;18.20
74364;DHT22;62797;49.740;10.154;2024-01-10T15:13:21;2.40;18.40
74364;DHT22;62797;49.740;10.154;2024-01-10T15:15:47;2.10;19.40
74364;DHT22;62797;49.740;10.154;2024-01-10T15:18:13;1.80;20.10
74364;DHT22;62797;49.740;10.154;2024-01-10T15:20:38;1.40;20.70
74364;DHT22;62797;49.740;10.154;2024-01-10T15:23:04;1.00;21.70
74364;DHT22;62797;49.740;10.154;2024-01-10T15:25:30;0.70;22.60
74364;DHT22;62797;49.740;10.154;2024-01-10T15:27:56;0.40;23.50
74364;DHT22;62797;49.740;10.154;2024-01-10T15:30:22;0.10;25.30
74364;DHT22;62797;49.740;10.154;2024-01-10T15:32:52;-0.10;25.90
74364;DHT22;62797;49.740;10.154;2024-01-10T15:35:17;-0.30;25.40
74364;DHT22;62797;49.740;10.154;2024-01-10T15:37:44;-0.30;25.70